sensor_id;sensor_type;location;lat;lon;timestamp;pressure;altitude;pressure_sealevel;temperature;humidity
24422;BME280;12600;53.326;-6.298;2024-03-06T00:00:43;101268.34;;;7.32;85.45
24422;BME280;12600;53.326;-6.298;2024-03-06T00:03:34;101277.59;;;7.41;85.63
24422;BME280;12600;53.326;-6.298;2024-03-06T00:06:23;101277.03;;;7.44;85.46
24422;BME280;12600;53.326;-6.298;2024-03-06T00:09:13;101272.69;;;7.48;86.37
24422;BME280;12600;53.326;-6.298;2024-03-06T00:12:03;101281.38;;;7.55;85.43
24422;BME280;12600;53.326;-6.298;2024-03-06T00:14:54;101287.09;;;7.58;85.52
24422;BME280;12600;53.326;-6.298;2024-03-06T00:17:44;101291.44;;;7.60;85.37
24422;BME280;12600;53.326;-6.298;2024-03-06T00:20:34;101289.25;;;7.62;84.66
24422;BME280;12600;53.326;-6.298;2024-03-06T00:23:24;101292.81;;;7.62;84.79
24422;BME280;12600;53.326;-6.298;2024-03-06T00:26:14;101285.72;;;7.61;84.26
24422;BME280;12600;53.326;-6.298;2024-03-06T00:29:03;101286.53;;;7.62;84.33
24422;BME280;12600;53.326;-6.298;2024-03-06T00:31:53;101271.06;;;7.47;84.45
24422;BME280;12600;53.326;-6.298;2024-03-06T00:34:43;101286.53;;;7.51;85.10
24422;BME280;12600;53.326;-6.298;2024-03-06T00:37:34;101277.31;;;7.47;85.00
24422;BME280;12600;53.326;-6.298;2024-03-06T00:40:23;101279.47;;;7.50;85.26
24422;BME280;12600;53.326;-6.298;2024-03-06T00:43:12;101286.25;;;7.53;85.23
24422;BME280;12600;53.326;-6.298;2024-03-06T00:46:02;101288.16;;;7.52;85.09
24422;BME280;12600;53.326;-6.298;2024-03-06T00:48:52;101262.66;;;7.38;85.13
24422;BME280;12600;53.326;-6.298;2024-03-06T00:51:41;101287.09;;;7.48;85.52
24422;BME280;12600;53.326;-6.298;2024-03-06T00:54:37;101285.72;;;7.46;85.61
24422;BME280;12600;53.326;-6.298;2024-03-06T00:57:27;101278.66;;;7.45;85.67
24422;BME280;12600;53.326;-6.298;2024-03-06T01:00:18;101267.25;;;7.27;85.16
24422;BME280;12600;53.326;-6.298;2024-03-06T01:03:07;101277.31;;;7.32;85.64
24422;BME280;12600;53.326;-6.298;2024-03-06T01:05:56;101290.09;;;7.32;85.09
24422;BME280;12600;53.326;-6.298;2024-03-06T01:08:46;101290.63;;;7.28;85.83
24422;BME280;12600;53.326;-6.298;2024-03-06T01:11:37;101287.91;;;7.23;85.90
24422;BME280;12600;53.326;-6.298;2024-03-06T01:14:26;101281.38;;;7.19;85.78
24422;BME280;12600;53.326;-6.298;2024-03-06T01:17:15;101283.81;;;7.21;85.85
24422;BME280;12600;53.326;-6.298;2024-03-06T01:20:06;101273.75;;;7.21;86.17
24422;BME280;12600;53.326;-6.298;2024-03-06T01:22:56;101275.41;;;7.22;85.86
24422;BME280;12600;53.326;-6.298;2024-03-06T01:25:46;101285.47;;;7.22;86.13
24422;BME280;12600;53.326;-6.298;2024-03-06T01:28:37;101271.31;;;7.20;85.81
24422;BME280;12600;53.326;-6.298;2024-03-06T01:31:27;101275.66;;;7.21;85.71
24422;BME280;12600;53.326;-6.298;2024-03-06T01:34:17;101274.03;;;7.20;85.68
24422;BME280;12600;53.326;-6.298;2024-03-06T01:37:07;101280.56;;;7.19;85.52
24422;BME280;12600;53.326;-6.298;2024-03-06T01:39:56;101282.44;;;7.13;85.99
24422;BME280;12600;53.326;-6.298;2024-03-06T01:42:47;101271.88;;;7.07;85.90
24422;BME280;12600;53.326;-6.298;2024-03-06T01:45:39;101278.66;;;7.04;85.92
24422;BME280;12600;53.326;-6.298;2024-03-06T01:48:29;101279.75;;;6.98;85.92
24422;BME280;12600;53.326;-6.298;2024-03-06T01:51:19;101281.09;;;7.00;86.55
24422;BME280;12600;53.326;-6.298;2024-03-06T01:54:09;101278.09;;;6.97;86.40
24422;BME280;12600;53.326;-6.298;2024-03-06T01:56:59;101269.13;;;6.91;86.32
24422;BME280;12600;53.326;-6.298;2024-03-06T01:59:51;101275.09;;;6.88;86.66
24422;BME280;12600;53.326;-6.298;2024-03-06T02:02:42;101269.13;;;6.86;86.71
24422;BME280;12600;53.326;-6.298;2024-03-06T02:05:32;101273.72;;;6.86;86.40
24422;BME280;12600;53.326;-6.298;2024-03-06T02:08:22;101265.59;;;6.86;86.61
24422;BME280;12600;53.326;-6.298;2024-03-06T02:11:11;101257.16;;;6.87;86.36
24422;BME280;12600;53.326;-6.298;2024-03-06T02:14:01;101260.16;;;6.86;86.73
24422;BME280;12600;53.326;-6.298;2024-03-06T02:16:51;101261.78;;;6.87;86.99
24422;BME280;12600;53.326;-6.298;2024-03-06T02:19:43;101250.91;;;6.82;86.95
24422;BME280;12600;53.326;-6.298;2024-03-06T02:22:35;101268.84;;;6.93;86.72
24422;BME280;12600;53.326;-6.298;2024-03-06T02:25:24;101272.13;;;6.95;86.78
24422;BME280;12600;53.326;-6.298;2024-03-06T02:28:14;101260.69;;;6.88;86.93
24422;BME280;12600;53.326;-6.298;2024-03-06T02:31:04;101252.53;;;6.88;87.26
24422;BME280;12600;53.326;-6.298;2024-03-06T02:33:54;101255.81;;;6.90;87.71
24422;BME280;12600;53.326;-6.298;2024-03-06T02:36:43;101247.94;;;6.88;87.27
24422;BME280;12600;53.326;-6.298;2024-03-06T02:39:34;101251.72;;;6.87;86.81
24422;BME280;12600;53.326;-6.298;2024-03-06T02:42:24;101251.16;;;6.80;87.15
24422;BME280;12600;53.326;-6.298;2024-03-06T02:45:13;101250.38;;;6.75;87.43
24422;BME280;12600;53.326;-6.298;2024-03-06T02:48:04;101262.53;;;6.62;87.91
24422;BME280;12600;53.326;-6.298;2024-03-06T02:50:54;101259.00;;;6.51;88.89
24422;BME280;12600;53.326;-6.298;2024-03-06T02:53:43;101260.88;;;6.45;89.21
24422;BME280;12600;53.326;-6.298;2024-03-06T02:56:34;101244.59;;;6.45;89.80
24422;BME280;12600;53.326;-6.298;2024-03-06T02:59:23;101244.84;;;6.44;89.33
24422;BME280;12600;53.326;-6.298;2024-03-06T03:02:13;101241.03;;;6.35;89.77
24422;BME280;12600;53.326;-6.298;2024-03-06T03:05:02;101242.13;;;6.34;89.69
24422;BME280;12600;53.326;-6.298;2024-03-06T03:07:52;101238.84;;;6.32;89.82
24422;BME280;12600;53.326;-6.298;2024-03-06T03:10:42;101239.38;;;6.29;90.44
24422;BME280;12600;53.326;-6.298;2024-03-06T03:13:34;101233.94;;;6.29;90.87
24422;BME280;12600;53.326;-6.298;2024-03-06T03:16:23;101231.78;;;6.26;90.76
24422;BME280;12600;53.326;-6.298;2024-03-06T03:19:13;101229.84;;;6.21;90.88
24422;BME280;12600;53.326;-6.298;2024-03-06T03:22:03;101223.53;;;6.05;91.09
24422;BME280;12600;53.326;-6.298;2024-03-06T03:24:52;101223.28;;;6.02;92.38
24422;BME280;12600;53.326;-6.298;2024-03-06T03:27:42;101228.38;;;5.98;92.26
24422;BME280;12600;53.326;-6.298;2024-03-06T03:30:33;101228.38;;;5.98;92.07
24422;BME280;12600;53.326;-6.298;2024-03-06T03:33:22;101225.66;;;5.93;92.55
24422;BME280;12600;53.326;-6.298;2024-03-06T03:36:12;101231.34;;;5.92;93.66
24422;BME280;12600;53.326;-6.298;2024-03-06T03:39:01;101225.34;;;5.89;93.14
24422;BME280;12600;53.326;-6.298;2024-03-06T03:41:51;101227.25;;;5.89;92.83
24422;BME280;12600;53.326;-6.298;2024-03-06T03:44:40;101227.81;;;5.91;93.08
24422;BME280;12600;53.326;-6.298;2024-03-06T03:47:31;101228.34;;;5.93;94.13
24422;BME280;12600;53.326;-6.298;2024-03-06T03:50:21;101234.88;;;5.92;93.69
24422;BME280;12600;53.326;-6.298;2024-03-06T03:53:10;101228.88;;;5.90;93.90
24422;BME280;12600;53.326;-6.298;2024-03-06T03:56:00;101224.47;;;5.79;94.79
24422;BME280;12600;53.326;-6.298;2024-03-06T03:58:51;101228.81;;;5.85;94.56
24422;BME280;12600;53.326;-6.298;2024-03-06T04:01:41;101232.06;;;5.82;94.26
24422;BME280;12600;53.326;-6.298;2024-03-06T04:04:32;101226.38;;;5.83;95.27
24422;BME280;12600;53.326;-6.298;2024-03-06T04:07:22;101226.69;;;5.87;95.50
24422;BME280;12600;53.326;-6.298;2024-03-06T04:10:11;101222.97;;;5.98;95.85
24422;BME280;12600;53.326;-6.298;2024-03-06T04:13:00;101199.56;;;5.87;96.56
24422;BME280;12600;53.326;-6.298;2024-03-06T04:15:52;101227.63;;;6.03;95.13
24422;BME280;12600;53.326;-6.298;2024-03-06T04:18:41;101229.50;;;6.02;95.11
24422;BME280;12600;53.326;-6.298;2024-03-06T04:21:32;101225.41;;;5.95;94.50
24422;BME280;12600;53.326;-6.298;2024-03-06T04:24:21;101230.22;;;5.87;94.50
24422;BME280;12600;53.326;-6.298;2024-03-06T04:27:11;101234.25;;;5.85;95.10
24422;BME280;12600;53.326;-6.298;2024-03-06T04:30:00;101233.16;;;5.81;95.39
24422;BME280;12600;53.326;-6.298;2024-03-06T04:32:50;101233.72;;;5.83;95.73
24422;BME280;12600;53.326;-6.298;2024-03-06T04:35:39;101223.94;;;5.82;95.44
24422;BME280;12600;53.326;-6.298;2024-03-06T04:38:30;101215.84;;;5.87;98.56
24422;BME280;12600;53.326;-6.298;2024-03-06T04:41:20;101202.38;;;6.02;97.93
24422;BME280;12600;53.326;-6.298;2024-03-06T04:44:09;101219.78;;;6.16;98.67
24422;BME280;12600;53.326;-6.298;2024-03-06T04:46:59;101214.69;;;6.30;99.90
24422;BME280;12600;53.326;-6.298;2024-03-06T04:49:48;101218.25;;;6.46;99.47
24422;BME280;12600;53.326;-6.298;2024-03-06T04:52:38;101219.09;;;6.57;99.53
24422;BME280;12600;53.326;-6.298;2024-03-06T04:55:29;101218.03;;;6.78;100.00
24422;BME280;12600;53.326;-6.298;2024-03-06T04:58:18;101219.44;;;6.91;99.32
24422;BME280;12600;53.326;-6.298;2024-03-06T05:01:08;101211.84;;;6.98;99.07
24422;BME280;12600;53.326;-6.298;2024-03-06T05:03:57;101212.63;;;7.09;98.64
24422;BME280;12600;53.326;-6.298;2024-03-06T05:07:04;101204.47;;;7.19;99.90
24422;BME280;12600;53.326;-6.298;2024-03-06T05:10:10;101205.25;;;7.29;100.00
24422;BME280;12600;53.326;-6.298;2024-03-06T05:13:19;101199.31;;;7.33;100.00
24422;BME280;12600;53.326;-6.298;2024-03-06T05:16:25;101207.72;;;7.46;100.00
24422;BME280;12600;53.326;-6.298;2024-03-06T05:19:32;101214.75;;;7.63;100.00
24422;BME280;12600;53.326;-6.298;2024-03-06T05:22:39;101212.81;;;7.68;100.00
24422;BME280;12600;53.326;-6.298;2024-03-06T05:25:46;101203.56;;;7.69;100.00
24422;BME280;12600;53.326;-6.298;2024-03-06T05:28:54;101209.84;;;7.60;100.00
24422;BME280;12600;53.326;-6.298;2024-03-06T05:32:01;101212.53;;;7.70;100.00
24422;BME280;12600;53.326;-6.298;2024-03-06T05:35:08;101208.75;;;7.71;100.00
24422;BME280;12600;53.326;-6.298;2024-03-06T05:38:15;101197.88;;;7.66;100.00
24422;BME280;12600;53.326;-6.298;2024-03-06T05:41:22;101209.81;;;7.80;100.00
24422;BME280;12600;53.326;-6.298;2024-03-06T05:44:30;101206.28;;;7.79;100.00
24422;BME280;12600;53.326;-6.298;2024-03-06T05:47:37;101199.22;;;7.73;100.00
24422;BME280;12600;53.326;-6.298;2024-03-06T05:50:44;101210.66;;;7.70;100.00
24422;BME280;12600;53.326;-6.298;2024-03-06T05:53:51;101211.19;;;7.67;100.00
24422;BME280;12600;53.326;-6.298;2024-03-06T05:56:57;101203.31;;;7.61;100.00
24422;BME280;12600;53.326;-6.298;2024-03-06T06:00:08;101219.88;;;7.74;100.00
24422;BME280;12600;53.326;-6.298;2024-03-06T06:02:59;101226.41;;;7.73;100.00
24422;BME280;12600;53.326;-6.298;2024-03-06T06:05:49;101236.75;;;7.71;100.00
24422;BME280;12600;53.326;-6.298;2024-03-06T06:08:38;101238.38;;;7.67;100.00
24422;BME280;12600;53.326;-6.298;2024-03-06T06:11:28;101235.13;;;7.65;100.00
24422;BME280;12600;53.326;-6.298;2024-03-06T06:14:17;101232.41;;;7.65;100.00
24422;BME280;12600;53.326;-6.298;2024-03-06T06:17:08;101222.63;;;7.64;100.00
24422;BME280;12600;53.326;-6.298;2024-03-06T06:19:58;101229.97;;;7.58;100.00
24422;BME280;12600;53.326;-6.298;2024-03-06T06:22:47;101234.59;;;7.53;100.00
24422;BME280;12600;53.326;-6.298;2024-03-06T06:25:37;101237.88;;;7.50;100.00
24422;BME280;12600;53.326;-6.298;2024-03-06T06:28:26;101240.06;;;7.43;100.00
24422;BME280;12600;53.326;-6.298;2024-03-06T06:31:15;101237.91;;;7.40;100.00
24422;BME280;12600;53.326;-6.298;2024-03-06T06:34:06;101241.69;;;7.34;100.00
24422;BME280;12600;53.326;-6.298;2024-03-06T06:36:56;101239.25;;;7.37;100.00
24422;BME280;12600;53.326;-6.298;2024-03-06T06:39:45;101239.53;;;7.36;100.00
24422;BME280;12600;53.326;-6.298;2024-03-06T06:42:36;101241.16;;;7.42;100.00
24422;BME280;12600;53.326;-6.298;2024-03-06T06:45:26;101249.84;;;7.49;100.00
24422;BME280;12600;53.326;-6.298;2024-03-06T06:48:16;101241.38;;;7.71;100.00
24422;BME280;12600;53.326;-6.298;2024-03-06T06:51:08;101244.31;;;7.84;100.00
24422;BME280;12600;53.326;-6.298;2024-03-06T06:53:57;101248.63;;;8.01;99.37
24422;BME280;12600;53.326;-6.298;2024-03-06T06:56:48;101241.28;;;8.06;98.25
24422;BME280;12600;53.326;-6.298;2024-03-06T06:59:37;101239.88;;;8.14;98.63
24422;BME280;12600;53.326;-6.298;2024-03-06T07:02:27;101239.59;;;8.16;97.96
24422;BME280;12600;53.326;-6.298;2024-03-06T07:05:18;101226.84;;;8.11;97.83
24422;BME280;12600;53.326;-6.298;2024-03-06T07:08:09;101238.25;;;8.18;97.51
24422;BME280;12600;53.326;-6.298;2024-03-06T07:10:58;101227.41;;;8.03;97.73
24422;BME280;12600;53.326;-6.298;2024-03-06T07:13:48;101247.53;;;8.12;97.34
24422;BME280;12600;53.326;-6.298;2024-03-06T07:16:42;101263.28;;;8.10;97.85
24422;BME280;12600;53.326;-6.298;2024-03-06T07:19:32;101258.41;;;8.07;98.45
24422;BME280;12600;53.326;-6.298;2024-03-06T07:22:21;101250.25;;;8.07;98.21
24422;BME280;12600;53.326;-6.298;2024-03-06T07:25:12;101229.06;;;7.99;99.29
24422;BME280;12600;53.326;-6.298;2024-03-06T07:28:02;101240.47;;;8.06;99.06
24422;BME280;12600;53.326;-6.298;2024-03-06T07:30:52;101231.53;;;7.95;99.58
24422;BME280;12600;53.326;-6.298;2024-03-06T07:33:41;101239.94;;;7.99;99.85
24422;BME280;12600;53.326;-6.298;2024-03-06T07:36:30;101237.22;;;8.04;100.00
24422;BME280;12600;53.326;-6.298;2024-03-06T07:39:20;101234.44;;;8.09;100.00
24422;BME280;12600;53.326;-6.298;2024-03-06T07:42:11;101239.06;;;8.13;100.00
24422;BME280;12600;53.326;-6.298;2024-03-06T07:45:00;101234.44;;;8.14;100.00
24422;BME280;12600;53.326;-6.298;2024-03-06T07:47:50;101226.25;;;8.19;100.00
24422;BME280;12600;53.326;-6.298;2024-03-06T07:50:39;101217.44;;;8.48;100.00
24422;BME280;12600;53.326;-6.298;2024-03-06T07:53:30;101232.38;;;8.94;100.00
24422;BME280;12600;53.326;-6.298;2024-03-06T07:56:19;101236.25;;;9.22;99.30
24422;BME280;12600;53.326;-6.298;2024-03-06T07:59:10;101232.34;;;9.34;97.53
24422;BME280;12600;53.326;-6.298;2024-03-06T08:02:00;101228.13;;;9.17;95.41
24422;BME280;12600;53.326;-6.298;2024-03-06T08:04:50;101228.13;;;9.17;95.63
24422;BME280;12600;53.326;-6.298;2024-03-06T08:07:40;101228.69;;;9.14;94.70
24422;BME280;12600;53.326;-6.298;2024-03-06T08:10:30;101219.97;;;9.12;94.63
24422;BME280;12600;53.326;-6.298;2024-03-06T08:13:19;101231.13;;;9.16;95.07
24422;BME280;12600;53.326;-6.298;2024-03-06T08:16:10;101226.22;;;9.13;94.81
24422;BME280;12600;53.326;-6.298;2024-03-06T08:18:59;101237.91;;;9.18;94.04
24422;BME280;12600;53.326;-6.298;2024-03-06T08:21:49;101245.25;;;9.23;94.08
24422;BME280;12600;53.326;-6.298;2024-03-06T08:24:38;101236.72;;;9.30;93.38
24422;BME280;12600;53.326;-6.298;2024-03-06T08:27:28;101237.97;;;9.42;93.70
24422;BME280;12600;53.326;-6.298;2024-03-06T08:30:17;101251.47;;;9.58;93.64
24422;BME280;12600;53.326;-6.298;2024-03-06T08:33:09;101244.13;;;9.82;93.53
24422;BME280;12600;53.326;-6.298;2024-03-06T08:35:58;101252.03;;;10.07;93.54
24422;BME280;12600;53.326;-6.298;2024-03-06T08:38:48;101244.09;;;10.35;93.70
24422;BME280;12600;53.326;-6.298;2024-03-06T08:41:37;101251.50;;;10.53;89.74
24422;BME280;12600;53.326;-6.298;2024-03-06T08:44:27;101261.34;;;10.92;89.34
24422;BME280;12600;53.326;-6.298;2024-03-06T08:47:16;101265.72;;;11.07;87.98
24422;BME280;12600;53.326;-6.298;2024-03-06T08:50:08;101263.56;;;11.23;86.44
24422;BME280;12600;53.326;-6.298;2024-03-06T08:52:58;101265.09;;;11.47;85.98
24422;BME280;12600;53.326;-6.298;2024-03-06T08:55:49;101274.34;;;11.65;83.85
24422;BME280;12600;53.326;-6.298;2024-03-06T08:58:38;101279.69;;;12.03;85.26
24422;BME280;12600;53.326;-6.298;2024-03-06T09:01:28;101275.03;;;12.17;81.50
24422;BME280;12600;53.326;-6.298;2024-03-06T09:04:17;101273.41;;;12.16;80.06
24422;BME280;12600;53.326;-6.298;2024-03-06T09:07:08;101267.72;;;11.99;77.74
24422;BME280;12600;53.326;-6.298;2024-03-06T09:09:58;101263.28;;;12.30;77.66
24422;BME280;12600;53.326;-6.298;2024-03-06T09:12:48;101264.97;;;12.54;76.26
24422;BME280;12600;53.326;-6.298;2024-03-06T09:15:38;101260.88;;;13.01;76.66
24422;BME280;12600;53.326;-6.298;2024-03-06T09:18:28;101260.19;;;13.18;74.03
24422;BME280;12600;53.326;-6.298;2024-03-06T09:21:17;101256.03;;;13.21;70.60
24422;BME280;12600;53.326;-6.298;2024-03-06T09:24:09;101252.00;;;13.40;69.82
24422;BME280;12600;53.326;-6.298;2024-03-06T09:26:58;101247.22;;;13.55;69.99
24422;BME280;12600;53.326;-6.298;2024-03-06T09:29:49;101260.94;;;13.86;70.74
24422;BME280;12600;53.326;-6.298;2024-03-06T09:32:38;101262.84;;;14.16;71.17
24422;BME280;12600;53.326;-6.298;2024-03-06T09:35:28;101273.75;;;14.39;70.36
24422;BME280;12600;53.326;-6.298;2024-03-06T09:38:17;101268.94;;;14.44;68.42
24422;BME280;12600;53.326;-6.298;2024-03-06T09:41:09;101274.31;;;14.75;67.63
24422;BME280;12600;53.326;-6.298;2024-03-06T09:44:00;101271.63;;;15.01;67.04
24422;BME280;12600;53.326;-6.298;2024-03-06T09:46:50;101265.31;;;15.01;65.08
24422;BME280;12600;53.326;-6.298;2024-03-06T09:49:39;101260.91;;;14.82;59.98
24422;BME280;12600;53.326;-6.298;2024-03-06T09:52:29;101261.88;;;14.78;59.70
24422;BME280;12600;53.326;-6.298;2024-03-06T09:55:20;101261.22;;;14.55;57.57
24422;BME280;12600;53.326;-6.298;2024-03-06T09:58:11;101255.91;;;14.27;57.56
24422;BME280;12600;53.326;-6.298;2024-03-06T10:01:01;101268.41;;;14.34;58.75
24422;BME280;12600;53.326;-6.298;2024-03-06T10:03:51;101263.72;;;14.43;58.84
24422;BME280;12600;53.326;-6.298;2024-03-06T10:06:41;101257.66;;;14.54;58.54
24422;BME280;12600;53.326;-6.298;2024-03-06T10:09:33;101263.16;;;14.72;57.14
24422;BME280;12600;53.326;-6.298;2024-03-06T10:12:22;101258.66;;;14.76;57.26
24422;BME280;12600;53.326;-6.298;2024-03-06T10:15:14;101269.47;;;14.72;56.56
24422;BME280;12600;53.326;-6.298;2024-03-06T10:18:14;101264.97;;;14.68;57.05
24422;BME280;12600;53.326;-6.298;2024-03-06T10:21:06;101271.16;;;14.34;56.36
24422;BME280;12600;53.326;-6.298;2024-03-06T10:23:57;101269.78;;;14.05;56.72
24422;BME280;12600;53.326;-6.298;2024-03-06T10:26:47;101259.78;;;13.78;57.46
24422;BME280;12600;53.326;-6.298;2024-03-06T10:29:37;101273.34;;;13.75;57.44
24422;BME280;12600;53.326;-6.298;2024-03-06T10:32:28;101266.31;;;13.91;57.85
24422;BME280;12600;53.326;-6.298;2024-03-06T10:35:19;101268.41;;;13.94;58.19
24422;BME280;12600;53.326;-6.298;2024-03-06T10:38:10;101255.31;;;13.91;57.60
24422;BME280;12600;53.326;-6.298;2024-03-06T10:41:00;101243.25;;;14.09;57.56
24422;BME280;12600;53.326;-6.298;2024-03-06T10:43:53;101248.16;;;14.21;57.01
24422;BME280;12600;53.326;-6.298;2024-03-06T10:46:44;101253.50;;;14.26;56.78
24422;BME280;12600;53.326;-6.298;2024-03-06T10:49:37;101262.09;;;14.33;56.46
24422;BME280;12600;53.326;-6.298;2024-03-06T10:52:28;101247.94;;;14.48;56.37
24422;BME280;12600;53.326;-6.298;2024-03-06T10:55:20;101269.94;;;14.66;56.18
24422;BME280;12600;53.326;-6.298;2024-03-06T10:58:12;101267.06;;;14.71;56.25
24422;BME280;12600;53.326;-6.298;2024-03-06T11:01:02;101245.84;;;14.54;56.57
24422;BME280;12600;53.326;-6.298;2024-03-06T11:03:52;101270.72;;;14.49;56.33
24422;BME280;12600;53.326;-6.298;2024-03-06T11:06:43;101266.63;;;14.29;55.78
24422;BME280;12600;53.326;-6.298;2024-03-06T11:09:35;101266.00;;;14.41;56.44
24422;BME280;12600;53.326;-6.298;2024-03-06T11:12:43;101268.25;;;14.39;56.64
24422;BME280;12600;53.326;-6.298;2024-03-06T11:15:37;101289.81;;;14.45;55.59
24422;BME280;12600;53.326;-6.298;2024-03-06T11:18:45;101272.28;;;14.33;55.28
24422;BME280;12600;53.326;-6.298;2024-03-06T11:21:46;101294.09;;;14.29;55.65
24422;BME280;12600;53.326;-6.298;2024-03-06T11:24:37;101238.31;;;13.80;56.10
24422;BME280;12600;53.326;-6.298;2024-03-06T11:27:27;101270.75;;;13.78;57.33
24422;BME280;12600;53.326;-6.298;2024-03-06T11:30:20;101297.66;;;13.90;58.24
24422;BME280;12600;53.326;-6.298;2024-03-06T11:33:13;101292.31;;;13.62;58.88
24422;BME280;12600;53.326;-6.298;2024-03-06T11:36:16;101290.59;;;13.66;59.42
24422;BME280;12600;53.326;-6.298;2024-03-06T11:39:08;101296.94;;;13.76;60.41
24422;BME280;12600;53.326;-6.298;2024-03-06T11:41:58;101300.53;;;13.85;60.71
24422;BME280;12600;53.326;-6.298;2024-03-06T11:44:54;101282.91;;;13.86;61.78
24422;BME280;12600;53.326;-6.298;2024-03-06T11:48:01;101298.63;;;13.94;62.39
24422;BME280;12600;53.326;-6.298;2024-03-06T11:50:51;101299.09;;;13.87;61.56
24422;BME280;12600;53.326;-6.298;2024-03-06T11:53:41;101295.84;;;13.85;60.25
24422;BME280;12600;53.326;-6.298;2024-03-06T11:56:34;101304.38;;;13.75;59.53
24422;BME280;12600;53.326;-6.298;2024-03-06T11:59:25;101289.22;;;13.86;60.03
24422;BME280;12600;53.326;-6.298;2024-03-06T12:02:15;101302.97;;;13.86;58.47
24422;BME280;12600;53.326;-6.298;2024-03-06T12:05:06;101318.38;;;13.96;58.75
24422;BME280;12600;53.326;-6.298;2024-03-06T12:07:59;101310.34;;;14.08;59.59
24422;BME280;12600;53.326;-6.298;2024-03-06T12:10:48;101316.19;;;14.15;60.10
24422;BME280;12600;53.326;-6.298;2024-03-06T12:13:41;101315.06;;;14.16;60.01
24422;BME280;12600;53.326;-6.298;2024-03-06T12:16:31;101301.78;;;14.10;58.36
24422;BME280;12600;53.326;-6.298;2024-03-06T12:19:20;101303.09;;;14.12;59.64
24422;BME280;12600;53.326;-6.298;2024-03-06T12:22:11;101296.78;;;14.12;59.40
24422;BME280;12600;53.326;-6.298;2024-03-06T12:25:01;101306.81;;;14.16;59.41
24422;BME280;12600;53.326;-6.298;2024-03-06T12:27:54;101306.66;;;14.13;58.76
24422;BME280;12600;53.326;-6.298;2024-03-06T12:30:45;101302.63;;;14.19;58.00
24422;BME280;12600;53.326;-6.298;2024-03-06T12:33:34;101312.38;;;14.34;58.36
24422;BME280;12600;53.326;-6.298;2024-03-06T12:36:25;101311.06;;;14.22;57.85
24422;BME280;12600;53.326;-6.298;2024-03-06T12:39:15;101304.28;;;14.28;58.00
24422;BME280;12600;53.326;-6.298;2024-03-06T12:42:11;101310.59;;;14.29;57.19
24422;BME280;12600;53.326;-6.298;2024-03-06T12:45:01;101319.63;;;14.21;57.50
24422;BME280;12600;53.326;-6.298;2024-03-06T12:47:52;101318.97;;;14.24;57.84
24422;BME280;12600;53.326;-6.298;2024-03-06T12:50:44;101319.63;;;14.21;58.25
24422;BME280;12600;53.326;-6.298;2024-03-06T12:53:39;101319.56;;;14.04;58.39
24422;BME280;12600;53.326;-6.298;2024-03-06T12:56:29;101313.13;;;13.86;58.73
24422;BME280;12600;53.326;-6.298;2024-03-06T12:59:18;101320.19;;;13.78;59.76
24422;BME280;12600;53.326;-6.298;2024-03-06T13:02:08;101316.91;;;13.67;59.87
24422;BME280;12600;53.326;-6.298;2024-03-06T13:04:59;101297.47;;;13.33;61.09
24422;BME280;12600;53.326;-6.298;2024-03-06T13:07:48;101309.31;;;13.42;61.49
24422;BME280;12600;53.326;-6.298;2024-03-06T13:10:38;101317.19;;;13.57;62.45
24422;BME280;12600;53.326;-6.298;2024-03-06T13:13:27;101305.28;;;13.39;61.91
24422;BME280;12600;53.326;-6.298;2024-03-06T13:16:17;101320.25;;;13.33;61.99
24422;BME280;12600;53.326;-6.298;2024-03-06T13:19:07;101320.66;;;13.27;63.18
24422;BME280;12600;53.326;-6.298;2024-03-06T13:22:01;101332.75;;;13.26;64.39
24422;BME280;12600;53.326;-6.298;2024-03-06T13:24:52;101321.91;;;13.21;64.78
24422;BME280;12600;53.326;-6.298;2024-03-06T13:27:42;101325.03;;;13.14;65.74
24422;BME280;12600;53.326;-6.298;2024-03-06T13:30:32;101323.63;;;13.16;65.93
24422;BME280;12600;53.326;-6.298;2024-03-06T13:33:21;101329.16;;;13.03;66.99
24422;BME280;12600;53.326;-6.298;2024-03-06T13:36:11;101311.88;;;13.02;67.64
24422;BME280;12600;53.326;-6.298;2024-03-06T13:39:02;101309.25;;;12.97;68.58
24422;BME280;12600;53.326;-6.298;2024-03-06T13:41:52;101322.03;;;13.02;68.99
24422;BME280;12600;53.326;-6.298;2024-03-06T13:44:41;101321.34;;;12.82;70.50
24422;BME280;12600;53.326;-6.298;2024-03-06T13:47:32;101323.59;;;12.80;71.57
24422;BME280;12600;53.326;-6.298;2024-03-06T13:50:21;101322.88;;;12.75;72.18
24422;BME280;12600;53.326;-6.298;2024-03-06T13:53:13;101316.19;;;12.81;72.19
24422;BME280;12600;53.326;-6.298;2024-03-06T13:56:05;101323.91;;;12.93;72.80
24422;BME280;12600;53.326;-6.298;2024-03-06T13:58:54;101326.75;;;12.87;73.15
24422;BME280;12600;53.326;-6.298;2024-03-06T14:01:44;101315.69;;;12.79;73.68
24422;BME280;12600;53.326;-6.298;2024-03-06T14:04:33;101318.16;;;12.53;74.80
24422;BME280;12600;53.326;-6.298;2024-03-06T14:07:23;101298.34;;;12.56;75.14
24422;BME280;12600;53.326;-6.298;2024-03-06T14:10:12;101304.16;;;12.54;75.40
24422;BME280;12600;53.326;-6.298;2024-03-06T14:13:04;101295.13;;;12.40;75.73
24422;BME280;12600;53.326;-6.298;2024-03-06T14:15:54;101311.06;;;12.24;76.43
24422;BME280;12600;53.326;-6.298;2024-03-06T14:18:48;101304.56;;;12.20;77.09
24422;BME280;12600;53.326;-6.298;2024-03-06T14:21:37;101300.19;;;12.06;78.35
24422;BME280;12600;53.326;-6.298;2024-03-06T14:24:27;101305.56;;;12.24;77.80
24422;BME280;12600;53.326;-6.298;2024-03-06T14:27:16;101307.00;;;12.36;77.25
24422;BME280;12600;53.326;-6.298;2024-03-06T14:30:08;101305.88;;;12.23;77.79
24422;BME280;12600;53.326;-6.298;2024-03-06T14:32:59;101312.69;;;12.39;78.10
24422;BME280;12600;53.326;-6.298;2024-03-06T14:35:49;101309.53;;;12.46;77.55
24422;BME280;12600;53.326;-6.298;2024-03-06T14:38:39;101312.56;;;12.58;77.65
24422;BME280;12600;53.326;-6.298;2024-03-06T14:41:28;101305.84;;;12.64;77.54
24422;BME280;12600;53.326;-6.298;2024-03-06T14:44:18;101285.16;;;12.58;77.65
24422;BME280;12600;53.326;-6.298;2024-03-06T14:47:09;101293.19;;;12.68;77.28
24422;BME280;12600;53.326;-6.298;2024-03-06T14:49:59;101305.44;;;12.71;77.58